Time;durP1;ratioP1;P1;durP2;ratioP2;P2;SDS_P1;SDS_P2;PMS_P1;PMS_P2;Temp;Humidity;BMP_temperature;BMP_pressure;BME280_temperature;BME280_humidity;BME280_pressure;Samples;Min_cycle;Max_cycle;Signal;HPM_P1;HPM_P2
2021/06/07 00:02:20;;;;;;;5.13;4.47;;;15.60;99.90;;;;;;5028146;28;20021;-74
2021/06/07 00:04:46;;;;;;;7.82;5.30;;;15.50;99.90;;;;;;5027596;28;20022;-75
2021/06/07 00:07:12;;;;;;;6.45;5.43;;;15.40;99.90;;;;;;5029060;28;20021;-74
2021/06/07 00:09:38;;;;;;;5.35;4.85;;;15.40;99.90;;;;;;5027527;28;20026;-74
2021/06/07 00:12:10;;;;;;;5.15;4.65;;;15.30;99.90;;;;;;5027538;28;20372;-74
2021/06/07 00:14:37;;;;;;;5.97;5.22;;;15.20;99.90;;;;;;5027927;28;20365;-74
2021/06/07 00:17:04;;;;;;;5.32;4.50;;;15.20;99.90;;;;;;5029704;28;20060;-74
2021/06/07 00:19:32;;;;;;;6.72;4.70;;;15.20;99.90;;;;;;5032620;28;20034;-75
2021/06/07 00:21:59;;;;;;;4.95;4.32;;;15.10;99.90;;;;;;5032505;28;20064;-73
2021/06/07 00:24:25;;;;;;;5.63;4.10;;;15.10;99.90;;;;;;5032730;28;20026;-74
2021/06/07 00:26:51;;;;;;;5.57;4.80;;;15.10;99.90;;;;;;5031099;28;20102;-74
2021/06/07 00:29:17;;;;;;;5.45;4.82;;;15.10;99.90;;;;;;5032283;28;20464;-74
2021/06/07 00:31:43;;;;;;;8.38;5.35;;;15.10;99.90;;;;;;5032363;28;20029;-74
2021/06/07 00:34:10;;;;;;;7.00;5.47;;;15.10;99.90;;;;;;5032335;28;20044;-74
2021/06/07 00:36:36;;;;;;;5.80;5.03;;;15.10;99.90;;;;;;5032313;28;20029;-74
2021/06/07 00:39:05;;;;;;;6.63;5.18;;;15.00;99.90;;;;;;5031983;28;20518;-74
2021/06/07 00:41:30;;;;;;;7.55;5.10;;;15.00;99.90;;;;;;5032104;28;20045;-74
2021/06/07 00:43:58;;;;;;;7.35;6.20;;;15.00;99.90;;;;;;5032101;28;20034;-74
2021/06/07 00:46:25;;;;;;;8.05;7.03;;;15.00;99.90;;;;;;5032272;28;20098;-74
2021/06/07 00:48:52;;;;;;;9.02;6.90;;;15.00;99.90;;;;;;5032150;28;20493;-75
2021/06/07 00:51:18;;;;;;;11.07;8.48;;;15.00;99.90;;;;;;5032036;28;20032;-74
2021/06/07 00:53:43;;;;;;;9.10;8.15;;;15.00;99.90;;;;;;5031875;28;20018;-74
2021/06/07 00:56:11;;;;;;;9.48;8.15;;;15.10;99.90;;;;;;5032134;28;20057;-74
2021/06/07 00:58:39;;;;;;;8.43;7.55;;;15.10;99.90;;;;;;5032041;28;20471;-74
2021/06/07 01:01:08;;;;;;;12.15;8.98;;;15.10;99.90;;;;;;5030833;28;20411;-74
2021/06/07 01:03:35;;;;;;;9.90;8.25;;;15.20;99.90;;;;;;5032076;28;20025;-74
2021/06/07 01:06:02;;;;;;;11.93;8.13;;;15.20;99.90;;;;;;5031807;28;20471;-74
2021/06/07 01:08:28;;;;;;;9.18;8.18;;;15.20;99.90;;;;;;5031077;28;20044;-74
2021/06/07 01:10:54;;;;;;;9.68;8.05;;;15.20;99.90;;;;;;5032296;28;20025;-74
2021/06/07 01:13:20;;;;;;;11.95;8.98;;;15.30;99.90;;;;;;5030358;28;20021;-74
2021/06/07 01:15:50;;;;;;;10.18;8.75;;;15.30;99.90;;;;;;5030455;28;20025;-74
2021/06/07 01:18:16;;;;;;;9.15;8.20;;;15.30;99.90;;;;;;5031516;28;20032;-74
2021/06/07 01:20:43;;;;;;;8.73;7.53;;;15.30;99.90;;;;;;5031611;28;20021;-74
2021/06/07 01:23:09;;;;;;;10.48;8.27;;;15.30;99.90;;;;;;5031336;28;20030;-75
2021/06/07 01:25:38;;;;;;;9.30;8.40;;;15.30;99.90;;;;;;5031262;28;20021;-74
2021/06/07 01:28:08;;;;;;;10.57;9.15;;;15.30;99.90;;;;;;5029464;28;20104;-74
2021/06/07 01:30:37;;;;;;;8.52;7.63;;;15.30;99.90;;;;;;5031373;28;20017;-74
2021/06/07 01:33:05;;;;;;;8.52;7.55;;;15.30;99.90;;;;;;5031152;28;20025;-74
2021/06/07 01:35:32;;;;;;;9.85;8.52;;;15.30;99.90;;;;;;5029920;28;20079;-74
2021/06/07 01:37:58;;;;;;;12.13;8.32;;;15.30;99.90;;;;;;5029594;28;20073;-74
2021/06/07 01:40:29;;;;;;;10.00;9.00;;;15.30;99.90;;;;;;5031680;28;20084;-74
2021/06/07 01:42:55;;;;;;;8.57;6.93;;;15.30;99.90;;;;;;5031335;28;20445;-74
2021/06/07 01:45:23;;;;;;;9.48;7.85;;;15.30;99.90;;;;;;5030987;28;20068;-74
2021/06/07 01:47:49;;;;;;;8.55;7.05;;;15.30;99.90;;;;;;5029563;28;20072;-74
2021/06/07 01:50:16;;;;;;;8.82;7.50;;;15.30;99.90;;;;;;5029480;28;20029;-74
2021/06/07 01:52:44;;;;;;;9.73;7.55;;;15.30;99.90;;;;;;5029522;28;20021;-74
2021/06/07 01:55:14;;;;;;;10.65;8.60;;;15.30;99.90;;;;;;5030784;28;20101;-74
2021/06/07 01:57:41;;;;;;;9.50;7.15;;;15.30;99.90;;;;;;5030662;28;20075;-74
2021/06/07 02:00:12;;;;;;;10.88;7.90;;;15.30;99.90;;;;;;5029359;28;20068;-74
2021/06/07 02:02:45;;;;;;;9.65;8.27;;;15.30;99.90;;;;;;5029944;28;20018;-74
2021/06/07 02:05:20;;;;;;;10.63;9.25;;;15.30;99.90;;;;;;5030761;28;20036;-74
2021/06/07 02:07:53;;;;;;;8.15;7.35;;;15.30;99.90;;;;;;5030582;28;20026;-74
2021/06/07 02:10:24;;;;;;;12.00;8.90;;;15.30;99.90;;;;;;5029436;28;20028;-74
2021/06/07 02:12:50;;;;;;;8.95;7.25;;;15.30;99.90;;;;;;5030560;28;20079;-74
2021/06/07 02:15:16;;;;;;;9.52;8.52;;;15.30;99.90;;;;;;5030499;28;20061;-74
2021/06/07 02:17:42;;;;;;;10.57;8.98;;;15.30;99.90;;;;;;5030712;28;20443;-74
2021/06/07 02:20:12;;;;;;;9.93;8.77;;;15.30;99.90;;;;;;5029015;28;20368;-74
2021/06/07 02:22:39;;;;;;;10.95;8.73;;;15.30;99.90;;;;;;5030246;28;20517;-74
2021/06/07 02:25:06;;;;;;;10.35;8.93;;;15.30;99.90;;;;;;5028865;28;20048;-74
2021/06/07 02:27:33;;;;;;;13.77;10.57;;;15.30;99.90;;;;;;5030168;28;20412;-74
2021/06/07 02:30:00;;;;;;;11.70;9.85;;;15.30;99.90;;;;;;5030228;28;20014;-74
2021/06/07 02:32:25;;;;;;;10.88;9.38;;;15.30;99.90;;;;;;5030554;28;20053;-74
2021/06/07 02:34:51;;;;;;;12.90;11.45;;;15.30;99.90;;;;;;5030271;28;20028;-74
2021/06/07 02:37:16;;;;;;;12.55;11.25;;;15.30;99.90;;;;;;5028880;28;20030;-74
2021/06/07 02:39:42;;;;;;;14.10;11.80;;;15.30;99.90;;;;;;5027769;28;20041;-74
2021/06/07 02:42:09;;;;;;;10.45;9.35;;;15.30;99.90;;;;;;5028874;28;20080;-74
2021/06/07 02:44:35;;;;;;;10.40;8.98;;;15.20;99.90;;;;;;5028856;28;20037;-74
2021/06/07 02:47:01;;;;;;;12.23;9.02;;;15.20;99.90;;;;;;5029235;28;20080;-74
2021/06/07 02:49:26;;;;;;;11.68;8.88;;;15.20;99.90;;;;;;5030627;28;20387;-74
2021/06/07 02:51:52;;;;;;;11.60;10.20;;;15.20;99.90;;;;;;5030631;28;20168;-74
2021/06/07 02:54:17;;;;;;;11.75;9.45;;;15.20;99.90;;;;;;5030298;28;20029;-74
2021/06/07 02:56:43;;;;;;;14.65;10.60;;;15.20;99.90;;;;;;5030716;28;20029;-74
2021/06/07 02:59:08;;;;;;;12.55;10.05;;;15.20;99.90;;;;;;5030817;28;20033;-74
2021/06/07 03:01:34;;;;;;;11.43;8.57;;;15.20;99.90;;;;;;5031149;28;20067;-74
2021/06/07 03:04:01;;;;;;;10.20;9.13;;;15.20;99.90;;;;;;5030575;28;20123;-74
2021/06/07 03:06:27;;;;;;;13.45;9.65;;;15.20;99.90;;;;;;5029577;28;20064;-75
2021/06/07 03:08:53;;;;;;;15.30;10.43;;;15.20;99.90;;;;;;5028283;28;20028;-74
2021/06/07 03:11:18;;;;;;;13.20;10.27;;;15.20;99.90;;;;;;5029626;28;20033;-74
2021/06/07 03:13:44;;;;;;;12.05;10.18;;;15.20;99.90;;;;;;5029638;28;20483;-74
2021/06/07 03:16:11;;;;;;;12.80;9.40;;;15.20;99.90;;;;;;5029475;28;20099;-74
2021/06/07 03:18:38;;;;;;;11.85;9.38;;;15.20;99.90;;;;;;5029793;28;20025;-74
2021/06/07 03:21:05;;;;;;;14.43;10.60;;;15.20;99.90;;;;;;5029546;28;20108;-74
2021/06/07 03:23:32;;;;;;;12.35;10.77;;;15.20;99.90;;;;;;5029377;28;20176;-73
2021/06/07 03:25:59;;;;;;;13.15;11.35;;;15.30;99.90;;;;;;5028051;28;20112;-73
2021/06/07 03:28:25;;;;;;;12.80;10.73;;;15.30;99.90;;;;;;5028599;28;20043;-74
2021/06/07 03:30:51;;;;;;;14.65;11.25;;;15.30;99.90;;;;;;5028966;28;20018;-73
2021/06/07 03:33:18;;;;;;;13.07;11.60;;;15.40;99.90;;;;;;5028169;28;20132;-74
2021/06/07 03:35:45;;;;;;;14.48;12.70;;;15.40;99.90;;;;;;5028441;28;20053;-74
2021/06/07 03:38:13;;;;;;;17.23;13.02;;;15.50;99.90;;;;;;5027770;28;20116;-74
2021/06/07 03:40:41;;;;;;;14.68;12.85;;;15.50;99.90;;;;;;5029398;28;20022;-74
2021/06/07 03:43:07;;;;;;;14.93;12.23;;;15.50;99.90;;;;;;5029210;28;20104;-74
2021/06/07 03:45:34;;;;;;;17.55;14.40;;;15.50;99.90;;;;;;5027842;28;20056;-74
2021/06/07 03:48:00;;;;;;;16.85;13.00;;;15.60;99.90;;;;;;5029070;28;20022;-74
2021/06/07 03:50:28;;;;;;;14.80;12.95;;;15.60;99.90;;;;;;5027840;28;20427;-75
2021/06/07 03:52:54;;;;;;;15.07;12.77;;;15.70;99.90;;;;;;5031866;28;20022;-74
2021/06/07 03:55:23;;;;;;;13.90;12.10;;;15.70;99.90;;;;;;5031843;28;20399;-74
2021/06/07 03:57:50;;;;;;;15.43;13.25;;;15.70;99.90;;;;;;5033036;28;20107;-74
2021/06/07 04:00:18;;;;;;;16.65;14.25;;;15.80;99.90;;;;;;5033001;28;20033;-74
2021/06/07 04:02:44;;;;;;;18.27;13.88;;;15.80;99.90;;;;;;5033033;28;20490;-74
2021/06/07 04:05:11;;;;;;;16.95;13.65;;;15.80;99.90;;;;;;5031750;28;20025;-74
2021/06/07 04:07:37;;;;;;;19.23;14.95;;;15.80;99.90;;;;;;5033223;28;20103;-74
2021/06/07 04:10:09;;;;;;;13.52;11.98;;;15.90;99.90;;;;;;5032842;28;20057;-74
2021/06/07 04:12:35;;;;;;;17.00;14.32;;;15.90;99.90;;;;;;5032882;28;20036;-74
2021/06/07 04:15:01;;;;;;;18.55;13.95;;;16.00;99.90;;;;;;5032635;28;20136;-74
2021/06/07 04:17:27;;;;;;;23.48;18.45;;;16.00;99.90;;;;;;5032774;28;20047;-74
2021/06/07 04:19:52;;;;;;;22.92;18.90;;;16.00;99.90;;;;;;5032739;28;20522;-74
2021/06/07 04:22:18;;;;;;;26.65;19.05;;;16.00;99.90;;;;;;5031453;28;20029;-74
2021/06/07 04:24:45;;;;;;;34.75;24.70;;;16.10;99.90;;;;;;5032630;28;20479;-74
2021/06/07 04:27:13;;;;;;;36.00;26.30;;;16.10;99.90;;;;;;5032599;28;20033;-74
2021/06/07 04:29:39;;;;;;;36.05;28.10;;;16.10;99.90;;;;;;5032752;28;20022;-74
2021/06/07 04:32:06;;;;;;;30.40;24.08;;;16.00;99.90;;;;;;5031239;28;20041;-74
2021/06/07 04:34:32;;;;;;;31.05;23.02;;;16.10;99.90;;;;;;5032428;28;20029;-75
2021/06/07 04:36:57;;;;;;;48.50;34.30;;;16.10;99.90;;;;;;5032517;28;20029;-74
2021/06/07 04:39:23;;;;;;;48.42;35.05;;;16.10;99.90;;;;;;5032416;28;20105;-74
2021/06/07 04:41:49;;;;;;;44.03;30.80;;;16.20;99.90;;;;;;5032296;28;20026;-74
2021/06/07 04:44:14;;;;;;;46.03;31.38;;;16.20;99.90;;;;;;5032313;28;20025;-75
2021/06/07 04:46:40;;;;;;;43.80;28.95;;;16.20;99.90;;;;;;5030909;28;20053;-75
2021/06/07 04:49:05;;;;;;;30.38;22.77;;;16.20;99.90;;;;;;5032138;28;20045;-74
2021/06/07 04:51:31;;;;;;;27.23;18.58;;;16.20;99.90;;;;;;5032338;28;20389;-74
2021/06/07 04:53:56;;;;;;;18.35;15.32;;;16.20;99.90;;;;;;5032222;28;20033;-74
2021/06/07 04:56:22;;;;;;;17.15;13.25;;;16.30;99.90;;;;;;5031923;28;20026;-74
2021/06/07 04:58:47;;;;;;;19.08;13.38;;;16.30;99.90;;;;;;5031950;28;20548;-74
2021/06/07 05:01:14;;;;;;;15.93;13.07;;;16.40;99.90;;;;;;5032041;28;20097;-74
2021/06/07 05:03:40;;;;;;;16.65;13.63;;;16.50;99.90;;;;;;5031281;28;20033;-75
2021/06/07 05:06:06;;;;;;;15.88;12.80;;;16.50;99.90;;;;;;5030617;28;20391;-74
2021/06/07 05:08:32;;;;;;;13.40;11.73;;;16.60;99.90;;;;;;5030800;28;20432;-74
2021/06/07 05:10:58;;;;;;;13.63;12.23;;;16.60;99.90;;;;;;5032397;28;20427;-74
2021/06/07 05:13:25;;;;;;;14.50;13.00;;;16.70;99.90;;;;;;5031826;28;20052;-74
2021/06/07 05:15:52;;;;;;;12.70;11.45;;;16.80;99.90;;;;;;5032004;28;20069;-74
2021/06/07 05:18:17;;;;;;;13.60;12.20;;;16.80;99.90;;;;;;5030281;28;20583;-74
2021/06/07 05:20:43;;;;;;;12.68;10.68;;;16.90;99.90;;;;;;5031867;28;20109;-74
2021/06/07 05:23:09;;;;;;;14.40;12.98;;;17.00;99.90;;;;;;5031665;28;20078;-74
2021/06/07 05:25:36;;;;;;;12.85;10.77;;;17.10;99.90;;;;;;5030272;28;20383;-74
2021/06/07 05:28:04;;;;;;;12.02;10.88;;;17.10;99.90;;;;;;5030186;28;20025;-75
2021/06/07 05:30:31;;;;;;;14.60;13.10;;;17.10;99.90;;;;;;5030432;28;20368;-75
2021/06/07 05:32:57;;;;;;;14.75;13.18;;;17.20;99.90;;;;;;5030184;28;20026;-74
2021/06/07 05:35:24;;;;;;;16.65;13.93;;;17.20;99.90;;;;;;5030424;28;20025;-75
2021/06/07 05:37:50;;;;;;;12.13;10.90;;;17.20;99.90;;;;;;5029877;28;20044;-75
2021/06/07 05:40:18;;;;;;;13.48;12.07;;;17.30;99.90;;;;;;5031272;22;20060;-71
2021/06/07 05:42:44;;;;;;;12.45;11.20;;;17.30;99.90;;;;;;5010456;28;20022;-72
2021/06/07 05:45:11;;;;;;;12.15;10.88;;;17.40;99.90;;;;;;5011545;28;20376;-71
2021/06/07 05:47:38;;;;;;;13.70;12.30;;;17.60;99.90;;;;;;5011657;28;20049;-71
2021/06/07 05:50:05;;;;;;;13.18;11.75;;;17.70;99.90;;;;;;5011402;28;20018;-71
2021/06/07 05:52:31;;;;;;;12.30;11.00;;;17.80;99.90;;;;;;5010039;28;20021;-71
2021/06/07 05:54:57;;;;;;;11.57;10.38;;;17.90;99.90;;;;;;5010126;28;20376;-71
2021/06/07 05:57:22;;;;;;;13.43;12.02;;;18.10;99.90;;;;;;5012139;28;20403;-72
2021/06/07 05:59:48;;;;;;;11.20;9.85;;;18.20;99.90;;;;;;5012145;28;20034;-71
2021/06/07 06:02:14;;;;;;;12.57;11.27;;;18.40;99.90;;;;;;5010186;28;20045;-71
2021/06/07 06:04:40;;;;;;;11.98;10.82;;;18.60;99.90;;;;;;5009901;28;20404;-71
2021/06/07 06:07:07;;;;;;;13.38;11.98;;;18.80;99.90;;;;;;5011976;28;20431;-71
2021/06/07 06:09:33;;;;;;;12.77;11.48;;;19.00;99.90;;;;;;5010969;28;20018;-71
2021/06/07 06:12:00;;;;;;;12.05;10.85;;;19.10;99.90;;;;;;5009746;28;20033;-72
2021/06/07 06:14:26;;;;;;;12.07;10.07;;;19.20;99.90;;;;;;5009766;28;20034;-71
2021/06/07 06:16:53;;;;;;;14.30;12.77;;;19.30;99.90;;;;;;5011278;28;20033;-71
2021/06/07 06:19:19;;;;;;;15.48;13.48;;;19.30;99.90;;;;;;5011009;28;20498;-72
2021/06/07 06:21:44;;;;;;;18.00;14.90;;;19.30;99.90;;;;;;5009663;28;20030;-71
2021/06/07 06:24:11;;;;;;;18.85;15.48;;;19.40;99.90;;;;;;5010830;28;20557;-71
2021/06/07 06:26:38;;;;;;;21.60;18.60;;;19.50;99.90;;;;;;5010945;28;20167;-72
2021/06/07 06:29:05;;;;;;;20.63;17.50;;;19.60;99.90;;;;;;5010653;28;20026;-71
2021/06/07 06:31:31;;;;;;;21.15;18.63;;;19.70;99.90;;;;;;5009361;28;20393;-72
2021/06/07 06:33:57;;;;;;;24.67;20.77;;;19.80;99.90;;;;;;5009399;28;20029;-73
2021/06/07 06:36:22;;;;;;;26.83;21.27;;;20.10;99.90;;;;;;5009322;28;20080;-72
2021/06/07 06:38:48;;;;;;;24.08;19.60;;;20.40;99.90;;;;;;5010305;28;20029;-73
2021/06/07 06:41:13;;;;;;;21.10;18.77;;;20.50;99.90;;;;;;5009224;28;20029;-73
2021/06/07 06:43:39;;;;;;;21.00;18.58;;;20.90;99.90;;;;;;5010567;28;20045;-72
2021/06/07 06:46:05;;;;;;;23.92;19.20;;;21.30;99.90;;;;;;5009172;28;20029;-73
2021/06/07 06:48:33;;;;;;;21.42;18.00;;;21.90;99.90;;;;;;5009044;28;20547;-73
2021/06/07 06:51:00;;;;;;;18.40;16.40;;;22.20;99.90;;;;;;5010357;28;20053;-72
2021/06/07 06:53:26;;;;;;;15.60;13.95;;;22.40;99.90;;;;;;5010326;28;20109;-72
2021/06/07 06:55:52;;;;;;;16.40;14.63;;;22.80;99.90;;;;;;5008976;28;20145;-73
2021/06/07 06:58:18;;;;;;;16.40;14.70;;;23.10;99.90;;;;;;5008743;28;20022;-74
2021/06/07 07:00:45;;;;;;;16.63;14.90;;;23.20;99.90;;;;;;5010958;28;20033;-72
2021/06/07 07:03:13;;;;;;;18.58;16.67;;;23.00;99.90;;;;;;5010675;28;20025;-73
2021/06/07 07:05:39;;;;;;;15.45;13.85;;;23.00;99.90;;;;;;5010105;28;20044;-73
2021/06/07 07:08:06;;;;;;;15.80;14.20;;;23.00;99.90;;;;;;5010225;28;20026;-72
2021/06/07 07:10:33;;;;;;;16.10;14.57;;;23.10;99.90;;;;;;5008591;28;20029;-72
2021/06/07 07:12:59;;;;;;;16.08;14.48;;;22.90;99.90;;;;;;5009862;28;20104;-72
2021/06/07 07:15:25;;;;;;;14.57;13.18;;;23.20;99.90;;;;;;5008633;28;20112;-73
2021/06/07 07:17:51;;;;;;;17.65;15.75;;;23.40;99.90;;;;;;5008569;28;20033;-72
2021/06/07 07:20:16;;;;;;;14.23;12.73;;;23.40;99.90;;;;;;5008548;28;20121;-73
2021/06/07 07:22:42;;;;;;;14.55;13.07;;;23.20;99.90;;;;;;5008616;28;20403;-72
2021/06/07 07:25:09;;;;;;;13.90;12.57;;;23.10;99.90;;;;;;5008377;28;20022;-72
2021/06/07 07:27:36;;;;;;;15.38;12.77;;;23.20;99.90;;;;;;5009319;28;20038;-72
2021/06/07 07:30:09;;;;;;;14.18;12.77;;;23.40;99.90;;;;;;5009668;28;20057;-72
2021/06/07 07:32:36;;;;;;;10.57;9.57;;;23.60;99.90;;;;;;5010286;28;20021;-73
2021/06/07 07:35:03;;;;;;;13.45;11.02;;;23.90;99.90;;;;;;5009631;28;20496;-73
2021/06/07 07:37:29;;;;;;;12.77;10.80;;;23.80;99.90;;;;;;5010082;28;20026;-73
2021/06/07 07:39:54;;;;;;;10.05;9.15;;;24.10;99.90;;;;;;5009520;28;20424;-75
2021/06/07 07:42:20;;;;;;;9.48;8.57;;;24.50;99.90;;;;;;5009585;28;20033;-73
2021/06/07 07:44:45;;;;;;;10.98;9.88;;;24.70;99.90;;;;;;5009612;28;20076;-73
2021/06/07 07:47:11;;;;;;;10.98;9.32;;;24.80;99.90;;;;;;5009804;28;20048;-73
2021/06/07 07:49:37;;;;;;;10.82;9.82;;;24.70;99.90;;;;;;5009365;28;20364;-73
2021/06/07 07:52:04;;;;;;;11.18;9.98;;;24.80;99.90;;;;;;5009540;28;20168;-73
2021/06/07 07:54:31;;;;;;;12.52;8.85;;;24.90;99.90;;;;;;5009764;28;20087;-73
2021/06/07 07:56:57;;;;;;;8.50;7.70;;;25.30;99.90;;;;;;5009692;28;20018;-72
2021/06/07 07:59:22;;;;;;;9.45;8.55;;;25.70;99.90;;;;;;5008063;28;20029;-73
2021/06/07 08:01:48;;;;;;;8.43;7.32;;;26.20;99.90;;;;;;5009678;28;20129;-72
2021/06/07 08:04:14;;;;;;;9.60;8.60;;;26.40;99.90;;;;;;5009539;28;20026;-73
2021/06/07 08:06:40;;;;;;;8.60;7.60;;;26.40;99.90;;;;;;5009381;28;20026;-73
2021/06/07 08:09:06;;;;;;;10.82;9.82;;;26.30;99.90;;;;;;5008178;28;20026;-73
2021/06/07 08:11:31;;;;;;;12.63;11.32;;;26.30;97.50;;;;;;5009596;28;20097;-74
2021/06/07 08:13:57;;;;;;;10.90;9.85;;;25.90;96.20;;;;;;5009674;28;20029;-73
2021/06/07 08:16:23;;;;;;;8.13;7.32;;;25.60;97.20;;;;;;5009652;28;20033;-73
2021/06/07 08:18:48;;;;;;;8.95;8.05;;;26.20;96.60;;;;;;5009432;28;20534;-73
2021/06/07 08:21:14;;;;;;;9.25;8.35;;;26.40;95.70;;;;;;5009503;28;20487;-72
2021/06/07 08:23:40;;;;;;;6.55;5.68;;;26.20;95.60;;;;;;5008180;28;20116;-72
2021/06/07 08:26:06;;;;;;;7.00;5.85;;;26.30;96.40;;;;;;5009583;28;20060;-72
2021/06/07 08:28:32;;;;;;;10.18;9.15;;;26.50;95.30;;;;;;5009438;28;20529;-73
2021/06/07 08:30:57;;;;;;;10.27;9.07;;;26.30;92.90;;;;;;5009805;28;20018;-73
2021/06/07 08:33:23;;;;;;;10.00;9.10;;;26.40;92.30;;;;;;5009738;28;20033;-73
2021/06/07 08:35:49;;;;;;;10.13;9.23;;;26.10;92.10;;;;;;5009867;28;20021;-72
2021/06/07 08:38:15;;;;;;;6.55;5.63;;;26.40;92.80;;;;;;5009513;28;20022;-74
2021/06/07 08:40:41;;;;;;;7.03;6.43;;;27.00;92.10;;;;;;5011713;28;20550;-74
2021/06/07 08:43:07;;;;;;;7.45;6.22;;;27.70;89.70;;;;;;5011994;28;20030;-73
2021/06/07 08:45:34;;;;;;;10.82;9.82;;;28.40;81.80;;;;;;5013169;28;20022;-73
2021/06/07 08:48:00;;;;;;;10.57;9.68;;;28.70;75.90;;;;;;5013315;28;20022;-74
2021/06/07 08:50:28;;;;;;;9.10;8.20;;;29.10;76.30;;;;;;5011305;28;20541;-73
2021/06/07 08:52:54;;;;;;;10.13;9.23;;;29.60;74.70;;;;;;5013337;28;20090;-74
2021/06/07 08:55:22;;;;;;;7.55;6.85;;;29.70;69.00;;;;;;5012650;28;20053;-73
2021/06/07 08:57:51;;;;;;;7.45;6.85;;;29.90;67.60;;;;;;5012647;28;20475;-74
2021/06/07 09:00:23;;;;;;;7.43;6.05;;;29.40;67.00;;;;;;5011044;28;20411;-74
2021/06/07 09:02:50;;;;;;;5.85;4.93;;;29.50;68.00;;;;;;5012589;28;20022;-74
2021/06/07 09:05:19;;;;;;;5.60;5.10;;;29.20;69.10;;;;;;5012398;28;20105;-74
2021/06/07 09:07:57;;;;;;;3.97;3.50;;;29.30;68.10;;;;;;5010851;28;20403;-74
2021/06/07 09:10:25;;;;;;;5.05;3.67;;;29.70;68.00;;;;;;5012689;28;20384;-74
2021/06/07 09:12:57;;;;;;;3.10;2.60;;;29.90;63.80;;;;;;5012252;28;20396;-74
2021/06/07 09:15:31;;;;;;;3.38;3.08;;;29.80;63.70;;;;;;5012412;28;20022;-74
2021/06/07 09:17:58;;;;;;;5.60;3.50;;;30.50;61.40;;;;;;5010923;28;20037;-73
2021/06/07 09:20:24;;;;;;;3.85;3.40;;;30.30;61.90;;;;;;5011993;28;20024;-73
2021/06/07 09:22:58;;;;;;;3.63;3.28;;;30.00;60.90;;;;;;5010547;28;20029;-73
2021/06/07 09:25:29;;;;;;;2.78;2.58;;;29.70;62.60;;;;;;5012133;28;20029;-73
2021/06/07 09:28:13;;;;;;;3.13;2.53;;;30.30;61.40;;;;;;5010489;28;20076;-74
2021/06/07 09:30:43;;;;;;;2.45;2.25;;;31.10;61.30;;;;;;5010322;28;20037;-73
2021/06/07 09:33:30;;;;;;;3.42;2.70;;;31.20;60.30;;;;;;5011701;28;20026;-73
2021/06/07 09:36:25;;;;;;;2.90;2.60;;;31.00;59.80;;;;;;5011714;28;20052;-73
2021/06/07 09:39:09;;;;;;;1.70;1.60;;;31.60;63.10;;;;;;5011601;28;20037;-74
2021/06/07 09:41:59;;;;;;;3.20;2.35;;;32.00;58.80;;;;;;5010259;28;20491;-74
2021/06/07 09:44:47;;;;;;;1.73;1.63;;;32.00;56.90;;;;;;5004501;28;20033;-73
2021/06/07 09:47:32;;;;;;;2.00;1.80;;;32.00;56.30;;;;;;5011692;28;20033;-73
2021/06/07 09:50:04;;;;;;;2.90;2.42;;;31.90;56.20;;;;;;5011000;28;20046;-73
2021/06/07 09:52:33;;;;;;;2.10;1.90;;;31.60;55.60;;;;;;5011648;28;20427;-73
2021/06/07 09:55:21;;;;;;;1.80;1.70;;;31.60;56.30;;;;;;5010046;28;20036;-73
2021/06/07 09:57:58;;;;;;;1.95;1.83;;;31.70;56.00;;;;;;5010060;28;20415;-73
2021/06/07 10:00:43;;;;;;;2.80;2.22;;;32.10;54.70;;;;;;5011191;28;20018;-73
2021/06/07 10:03:26;;;;;;;2.22;1.92;;;32.20;53.60;;;;;;5011171;28;20514;-72
2021/06/07 10:05:58;;;;;;;2.78;2.40;;;32.10;53.70;;;;;;5009840;28;20034;-73
2021/06/07 10:08:26;;;;;;;3.22;2.08;;;31.70;53.90;;;;;;5011344;28;20380;-74
2021/06/07 10:10:54;;;;;;;2.55;2.35;;;31.60;54.60;;;;;;5011182;28;20018;-74
2021/06/07 10:13:20;;;;;;;2.38;2.00;;;31.50;54.10;;;;;;5009961;28;20550;-74
2021/06/07 10:15:48;;;;;;;2.10;1.90;;;31.40;55.50;;;;;;5009756;28;20205;-74
2021/06/07 10:18:21;;;;;;;2.13;1.92;;;31.40;55.70;;;;;;5011215;28;20034;-73
2021/06/07 10:20:50;;;;;;;3.40;2.17;;;31.40;56.20;;;;;;5010834;28;20434;-73
2021/06/07 10:23:28;;;;;;;2.78;1.90;;;32.90;52.80;;;;;;5011284;28;20030;-74
2021/06/07 10:25:56;;;;;;;3.00;2.40;;;35.80;49.20;;;;;;5010808;28;20025;-75
2021/06/07 10:28:30;;;;;;;3.00;2.00;;;37.10;43.10;;;;;;5010650;28;20032;-74
2021/06/07 10:30:57;;;;;;;1.75;1.65;;;38.50;41.70;;;;;;5009338;28;20049;-74
2021/06/07 10:33:34;;;;;;;2.42;2.22;;;40.90;36.50;;;;;;5010567;28;20097;-75
2021/06/07 10:36:21;;;;;;;2.35;2.15;;;40.40;33.80;;;;;;5009388;28;20029;-74
2021/06/07 10:38:51;;;;;;;2.25;2.00;;;40.20;34.80;;;;;;5010409;28;20035;-75
2021/06/07 10:41:25;;;;;;;2.92;2.00;;;39.10;36.60;;;;;;5010997;28;20026;-73
2021/06/07 10:43:53;;;;;;;2.38;2.17;;;39.00;37.20;;;;;;5009432;28;20364;-74
2021/06/07 10:46:30;;;;;;;1.90;1.80;;;38.70;36.70;;;;;;5010362;28;20032;-74
2021/06/07 10:48:58;;;;;;;3.58;1.90;;;38.50;37.40;;;;;;5009480;28;20474;-74
2021/06/07 10:51:28;;;;;;;2.75;1.80;;;39.50;36.80;;;;;;5009115;28;20491;-74
2021/06/07 10:54:14;;;;;;;2.25;2.08;;;41.40;33.30;;;;;;5010940;28;20110;-73
2021/06/07 10:56:40;;;;;;;3.08;2.40;;;41.90;32.10;;;;;;5010093;28;20021;-74
2021/06/07 10:59:14;;;;;;;2.42;2.17;;;39.70;33.10;;;;;;5010238;28;20036;-74
2021/06/07 11:01:59;;;;;;;2.45;2.00;;;39.70;34.90;;;;;;5009816;28;20026;-74
2021/06/07 11:04:35;;;;;;;2.13;1.88;;;41.50;33.10;;;;;;5009360;28;20471;-74
2021/06/07 11:07:11;;;;;;;2.33;2.13;;;44.20;30.00;;;;;;5008844;28;20026;-74
2021/06/07 11:10:09;;;;;;;5.07;2.28;;;45.00;28.60;;;;;;5010518;28;20510;-74
2021/06/07 11:12:36;;;;;;;2.38;2.17;;;44.30;28.20;;;;;;5010375;28;20495;-75
2021/06/07 11:15:15;;;;;;;1.85;1.75;;;43.40;29.60;;;;;;5010550;28;20030;-75
2021/06/07 11:17:42;;;;;;;1.90;1.73;;;41.00;32.70;;;;;;5010226;28;20429;-74
2021/06/07 11:20:09;;;;;;;2.03;1.80;;;40.70;33.40;;;;;;5009867;28;20022;-74
2021/06/07 11:23:04;;;;;;;2.30;2.10;;;41.20;32.70;;;;;;5010437;28;20022;-74
2021/06/07 11:25:30;;;;;;;2.35;1.88;;;40.80;31.20;;;;;;5011084;28;20029;-73
2021/06/07 11:27:56;;;;;;;3.65;2.53;;;39.80;33.80;;;;;;5010832;28;20033;-74
2021/06/07 11:30:22;;;;;;;1.88;1.65;;;40.00;32.50;;;;;;5010401;28;20076;-73
2021/06/07 11:32:49;;;;;;;2.13;1.80;;;41.40;32.10;;;;;;5010639;28;20415;-74
2021/06/07 11:35:43;;;;;;;1.70;1.60;;;43.20;30.60;;;;;;5010226;28;20024;-74
2021/06/07 11:38:36;;;;;;;2.22;2.03;;;43.80;29.70;;;;;;5010030;28;20078;-74
2021/06/07 11:41:26;;;;;;;1.80;1.70;;;44.10;28.60;;;;;;5040638;22;20143;-74
2021/06/07 11:43:53;;;;;;;2.35;2.15;;;44.50;29.20;;;;;;5027983;28;20021;-73
2021/06/07 11:46:30;;;;;;;1.85;1.75;;;45.70;27.90;;;;;;5027908;28;20532;-74
2021/06/07 11:49:16;;;;;;;2.72;2.00;;;44.10;28.90;;;;;;5027909;28;20026;-73
2021/06/07 11:51:44;;;;;;;3.03;2.08;;;43.30;29.80;;;;;;5008206;28;20044;-73
2021/06/07 11:54:35;;;;;;;1.85;1.75;;;43.20;29.70;;;;;;5009264;28;20034;-73
2021/06/07 11:57:04;;;;;;;2.53;2.13;;;42.40;31.10;;;;;;5002563;28;20041;-73
2021/06/07 11:59:32;;;;;;;2.00;1.80;;;42.40;30.20;;;;;;5009013;28;20065;-73
2021/06/07 12:01:59;;;;;;;1.90;1.80;;;42.50;31.00;;;;;;5009604;28;20034;-73
2021/06/07 12:04:29;;;;;;;2.80;1.95;;;42.20;30.40;;;;;;5009068;28;20502;-74
2021/06/07 12:07:04;;;;;;;2.00;1.80;;;42.80;29.90;;;;;;5009566;28;20022;-73
2021/06/07 12:09:31;;;;;;;2.00;1.90;;;44.30;28.60;;;;;;5009547;28;20029;-74
2021/06/07 12:11:57;;;;;;;1.85;1.73;;;44.60;28.70;;;;;;5009962;28;20018;-73
2021/06/07 12:14:36;;;;;;;3.03;2.30;;;42.80;29.60;;;;;;5011809;28;20047;-73
2021/06/07 12:17:06;;;;;;;3.58;2.00;;;43.00;29.50;;;;;;5012276;28;20030;-73
2021/06/07 12:19:42;;;;;;;2.33;2.13;;;43.20;29.50;;;;;;5012884;28;20030;-72
2021/06/07 12:22:28;;;;;;;4.85;2.47;;;43.50;28.30;;;;;;5011705;28;20057;-73
2021/06/07 12:30:53;;;;;;;2.58;2.30;;;42.80;29.60;;;;;;5013116;28;20037;-72
2021/06/07 12:33:33;;;;;;;1.90;1.80;;;42.80;28.80;;;;;;5012655;28;20033;-73
2021/06/07 12:36:04;;;;;;;2.00;1.90;;;43.40;29.20;;;;;;5011337;28;20030;-72
2021/06/07 12:38:30;;;;;;;2.00;1.80;;;42.50;29.50;;;;;;5011252;28;20373;-73
2021/06/07 12:40:58;;;;;;;4.55;2.63;;;42.50;30.00;;;;;;5012408;28;20038;-74
2021/06/07 12:43:26;;;;;;;2.38;1.98;;;42.80;29.70;;;;;;5012547;28;20022;-73
2021/06/07 12:45:56;;;;;;;3.03;2.38;;;42.30;30.20;;;;;;5012720;28;20383;-73
2021/06/07 12:48:27;;;;;;;2.88;2.00;;;41.20;30.90;;;;;;5011033;28;20018;-75
2021/06/07 12:50:53;;;;;;;2.23;2.03;;;40.20;33.40;;;;;;5011026;28;20029;-75
2021/06/07 12:53:21;;;;;;;3.53;2.05;;;39.70;33.00;;;;;;5011112;28;20265;-75